createdAt,value
2022-12-12T00:01:35.028Z,1.63
2022-12-12T00:06:38.036Z,1.41
2022-12-12T00:11:41.059Z,1.31
2022-12-12T00:16:43.537Z,1.85
2022-12-12T00:21:46.162Z,1.65
2022-12-12T00:26:48.544Z,2.71
2022-12-12T00:31:51.051Z,2.52
2022-12-12T00:36:53.551Z,2.55
2022-12-12T00:41:55.932Z,2.45
2022-12-12T00:46:58.352Z,2.83
2022-12-12T00:52:00.906Z,2.47
2022-12-12T00:57:03.429Z,2.03
2022-12-12T01:02:06.205Z,2.73
2022-12-12T01:07:09.095Z,2.52
2022-12-12T01:12:11.872Z,2.70
2022-12-12T01:17:14.375Z,2.73
2022-12-12T01:22:17.247Z,2.60
2022-12-12T01:27:19.947Z,1.92
2022-12-12T01:32:22.620Z,2.00
2022-12-12T01:37:25.240Z,2.26
2022-12-12T01:42:29.607Z,2.77
2022-12-12T01:47:32.027Z,2.02
2022-12-12T01:52:50.039Z,1.29
2022-12-12T01:57:54.455Z,0.75
2022-12-12T02:02:57.890Z,1.25
2022-12-12T02:08:03.307Z,1.76
2022-12-12T02:13:11.795Z,0.96
2022-12-12T02:18:22.420Z,0.07
2022-12-12T02:24:02.151Z,-0.33
2022-12-12T02:29:29.095Z,-0.84
2022-12-12T02:34:38.946Z,-0.26
2022-12-12T02:39:44.651Z,1.01
2022-12-12T02:45:22.941Z,1.12
2022-12-12T02:50:28.721Z,0.10
2022-12-12T02:55:35.084Z,0.10
2022-12-12T03:00:52.784Z,-0.61
2022-12-12T03:06:25.961Z,-0.57
2022-12-12T03:11:46.092Z,-0.38
2022-12-12T03:16:52.352Z,0.22
2022-12-12T03:22:03.486Z,-0.24
2022-12-12T03:27:12.411Z,-0.75
2022-12-12T03:32:23.634Z,-0.79
2022-12-12T03:37:34.656Z,-0.11
2022-12-12T03:42:48.918Z,-0.23
2022-12-12T03:48:03.315Z,-0.24
2022-12-12T03:53:19.089Z,-0.41
2022-12-12T03:58:28.717Z,1.36
2022-12-12T04:03:43.002Z,0.80
2022-12-12T04:09:07.328Z,0.49
2022-12-12T04:14:24.486Z,0.84
2022-12-12T04:20:34.533Z,1.49
2022-12-12T04:26:23.547Z,1.27
2022-12-12T04:31:29.208Z,1.68
2022-12-12T04:36:34.641Z,2.00
2022-12-12T04:41:40.638Z,1.12
2022-12-12T04:46:44.891Z,1.23
2022-12-12T04:51:52.784Z,1.01
2022-12-12T04:57:00.104Z,1.94
2022-12-12T05:02:10.070Z,2.24
2022-12-12T05:07:23.543Z,2.62
2022-12-12T05:12:26.955Z,2.62
2022-12-12T05:17:35.345Z,2.83
2022-12-12T05:22:40.984Z,2.61
2022-12-12T05:27:43.457Z,1.84
2022-12-12T05:32:45.999Z,2.24
2022-12-12T05:37:51.971Z,2.17
2022-12-12T05:42:54.923Z,2.60
2022-12-12T05:47:57.971Z,2.88
2022-12-12T05:53:00.392Z,2.56
2022-12-12T05:58:02.964Z,2.86
2022-12-12T06:03:05.433Z,2.81
2022-12-12T06:08:08.367Z,2.90
2022-12-12T06:13:10.929Z,2.79
2022-12-12T06:18:13.359Z,2.86
2022-12-12T06:23:15.747Z,3.06
2022-12-12T06:28:18.129Z,3.07
2022-12-12T06:33:20.758Z,2.85
2022-12-12T06:38:23.250Z,1.67
2022-12-12T06:43:25.632Z,2.33
2022-12-12T06:48:28.263Z,2.60
2022-12-12T06:53:30.695Z,2.63
2022-12-12T06:58:33.135Z,1.98
2022-12-12T07:03:35.756Z,1.88
2022-12-12T07:08:38.747Z,2.44
2022-12-12T07:13:41.519Z,2.37
2022-12-12T07:18:44.052Z,2.75
2022-12-12T07:23:46.813Z,2.89
2022-12-12T07:28:50.671Z,1.82
2022-12-12T07:33:54.633Z,0.90
2022-12-12T07:38:57.080Z,-0.13
2022-12-12T07:44:00.185Z,-0.39
2022-12-12T07:49:02.560Z,0.09
2022-12-12T07:54:05.067Z,-0.50
2022-12-12T07:59:08.178Z,-0.17
2022-12-12T08:04:10.867Z,0.05
2022-12-12T08:09:13.326Z,-0.05
2022-12-12T08:14:15.816Z,-0.50
2022-12-12T08:19:18.743Z,-0.29
2022-12-12T08:24:21.955Z,-0.22
2022-12-12T08:29:24.420Z,-0.36
2022-12-12T08:34:27.023Z,-0.46
2022-12-12T08:39:29.435Z,0.03
2022-12-12T08:44:32.274Z,1.17
2022-12-12T08:49:34.662Z,1.68
2022-12-12T08:54:38.465Z,2.18
2022-12-12T08:59:41.034Z,2.00
2022-12-12T09:04:43.658Z,1.91
2022-12-12T09:09:46.079Z,1.85
2022-12-12T09:14:48.526Z,1.70
2022-12-12T09:19:50.971Z,0.84
2022-12-12T09:24:53.402Z,1.07
2022-12-12T09:29:56.176Z,1.12
2022-12-12T09:34:58.654Z,1.00
2022-12-12T09:40:01.498Z,1.38
2022-12-12T09:45:08.056Z,1.69
2022-12-12T09:50:32.339Z,1.01
2022-12-12T09:55:49.664Z,0.82
2022-12-12T10:01:21.558Z,1.10
2022-12-12T10:06:38.706Z,1.02
2022-12-12T10:11:55.971Z,1.07
2022-12-12T10:17:00.087Z,1.63
2022-12-12T10:22:14.986Z,2.03
2022-12-12T10:27:17.743Z,2.34
2022-12-12T10:32:29.287Z,2.99
2022-12-12T10:37:45.464Z,3.39
2022-12-12T10:43:18.865Z,2.79
2022-12-12T10:48:21.398Z,2.43
2022-12-12T10:53:24.547Z,2.22
2022-12-12T10:58:43.891Z,2.18
2022-12-12T11:03:52.285Z,2.51
2022-12-12T11:09:00.828Z,1.56
2022-12-12T11:14:21.050Z,1.75
2022-12-12T11:19:27.408Z,2.05
2022-12-12T11:24:32.701Z,3.15
2022-12-12T11:29:45.557Z,4.32
2022-12-12T11:34:54.352Z,7.58
2022-12-12T11:39:57.761Z,11.21
2022-12-12T11:45:14.352Z,11.91
2022-12-12T11:50:22.563Z,12.86
2022-12-12T11:55:54.737Z,13.77
2022-12-12T12:01:07.079Z,12.45
2022-12-12T12:06:37.004Z,13.46
2022-12-12T12:11:53.310Z,13.71
2022-12-12T12:17:30.395Z,13.78
2022-12-12T12:22:58.340Z,13.68
2022-12-12T12:28:21.027Z,13.77
2022-12-12T12:33:59.150Z,15.00
2022-12-12T12:39:49.152Z,9.69
2022-12-12T12:44:55.322Z,7.53
2022-12-12T12:50:21.493Z,6.73
2022-12-12T12:55:32.461Z,6.49
2022-12-12T13:00:36.568Z,6.49
2022-12-12T13:05:56.866Z,6.09
2022-12-12T13:11:15.679Z,6.07
2022-12-12T13:16:22.993Z,6.00
2022-12-12T13:21:56.860Z,6.42
2022-12-12T13:27:21.030Z,6.67
2022-12-12T13:33:10.868Z,6.68
2022-12-12T13:38:27.717Z,6.51
2022-12-12T13:43:42.530Z,6.00
2022-12-12T13:48:56.186Z,5.91
2022-12-12T13:54:12.741Z,5.86
2022-12-12T13:59:27.915Z,5.69
2022-12-12T14:04:35.842Z,5.50
2022-12-12T14:09:50.923Z,5.40
2022-12-12T14:15:01.306Z,5.21
2022-12-12T14:20:05.273Z,5.21
2022-12-12T14:25:19.605Z,5.22
2022-12-12T14:30:54.194Z,5.03
2022-12-12T14:36:09.049Z,4.99
2022-12-12T14:41:18.218Z,4.84
2022-12-12T14:46:21.496Z,4.90
2022-12-12T14:51:30.033Z,4.91
2022-12-12T14:56:41.100Z,4.79
2022-12-12T15:01:53.379Z,4.51
2022-12-12T15:07:01.291Z,4.47
2022-12-12T15:12:43.377Z,4.55
2022-12-12T15:17:50.828Z,4.53
2022-12-12T15:22:57.348Z,4.50
2022-12-12T15:28:00.841Z,4.13
2022-12-12T15:33:07.692Z,4.09
2022-12-12T15:38:13.926Z,4.13
2022-12-12T15:43:23.419Z,4.20
2022-12-12T15:48:26.556Z,4.25
2022-12-12T15:53:55.639Z,4.12
2022-12-12T15:59:09.995Z,3.75
2022-12-12T16:04:12.433Z,3.71
2022-12-12T16:09:19.763Z,3.90
2022-12-12T16:14:42.828Z,3.84
2022-12-12T16:19:48.003Z,4.00
2022-12-12T16:24:54.237Z,3.48
2022-12-12T16:29:56.655Z,2.35
2022-12-12T16:34:59.110Z,2.67
2022-12-12T16:40:01.896Z,3.40
2022-12-12T16:45:05.057Z,3.27
2022-12-12T16:50:08.318Z,2.63
2022-12-12T16:55:31.288Z,2.97
2022-12-12T17:00:33.787Z,3.03
2022-12-12T17:05:38.813Z,3.09
2022-12-12T17:10:41.825Z,2.79
2022-12-12T17:15:44.409Z,2.80
2022-12-12T17:20:47.778Z,3.17
2022-12-12T17:25:50.368Z,3.16
2022-12-12T17:30:53.796Z,2.89
2022-12-12T17:36:01.509Z,2.30
2022-12-12T17:41:09.055Z,1.60
2022-12-12T17:46:14.801Z,1.99
2022-12-12T17:51:20.095Z,3.02
2022-12-12T17:56:25.167Z,2.51
2022-12-12T18:01:31.602Z,2.83
2022-12-12T18:06:36.169Z,2.82
2022-12-12T18:11:39.243Z,3.01
2022-12-12T18:16:44.236Z,2.14
2022-12-12T18:22:02.711Z,2.31
2022-12-12T18:27:05.490Z,2.84
2022-12-12T18:32:08.231Z,2.58
2022-12-12T18:37:11.652Z,2.60
2022-12-12T18:42:14.252Z,3.08
2022-12-12T18:47:16.705Z,1.84
2022-12-12T18:52:19.168Z,2.08
2022-12-12T18:57:21.615Z,2.58
2022-12-12T19:02:24.122Z,2.11
2022-12-12T19:07:26.610Z,2.33
2022-12-12T19:12:29.062Z,2.39
2022-12-12T19:17:31.842Z,2.06
2022-12-12T19:22:49.994Z,2.16
2022-12-12T19:27:52.675Z,2.62
2022-12-12T19:32:55.846Z,2.78
2022-12-12T19:37:58.229Z,3.08
2022-12-12T19:43:00.627Z,2.78
2022-12-12T19:48:03.169Z,2.08
2022-12-12T19:53:05.702Z,1.65
2022-12-12T19:58:08.369Z,1.78
2022-12-12T20:03:11.174Z,1.21
2022-12-12T20:08:13.740Z,1.41
2022-12-12T20:13:16.164Z,1.42
2022-12-12T20:18:18.649Z,0.95
2022-12-12T20:23:21.089Z,1.33
2022-12-12T20:28:23.752Z,1.60
2022-12-12T20:33:26.150Z,0.74
2022-12-12T20:38:30.882Z,1.00
2022-12-12T20:43:33.536Z,1.74
2022-12-12T20:48:36.655Z,1.76
2022-12-12T20:53:41.448Z,1.69
2022-12-12T20:58:44.599Z,2.21
2022-12-12T21:03:48.860Z,1.03
2022-12-12T21:08:52.726Z,0.56
2022-12-12T21:13:55.605Z,0.43
2022-12-12T21:19:00.600Z,1.03
2022-12-12T21:24:03.927Z,0.95
2022-12-12T21:29:06.826Z,1.57
2022-12-12T21:34:10.025Z,0.55
2022-12-12T21:39:13.654Z,1.19
2022-12-12T21:44:16.091Z,1.60
2022-12-12T21:49:27.933Z,1.84
2022-12-12T21:54:31.376Z,0.76
2022-12-12T21:59:37.554Z,0.42
2022-12-12T22:04:40.355Z,1.29
2022-12-12T22:09:57.233Z,1.17
2022-12-12T22:15:21.090Z,1.38
2022-12-12T22:20:47.137Z,1.16
2022-12-12T22:25:51.962Z,1.35
2022-12-12T22:30:55.105Z,0.43
2022-12-12T22:36:06.456Z,1.10
2022-12-12T22:41:15.102Z,1.27
2022-12-12T22:46:28.255Z,0.75
2022-12-12T22:51:44.387Z,1.34
2022-12-12T22:56:54.009Z,0.69
2022-12-12T23:02:02.885Z,1.29
2022-12-12T23:07:25.010Z,0.79
2022-12-12T23:13:33.115Z,-0.43
2022-12-12T23:18:27.698Z,-0.37
2022-12-12T23:23:32.582Z,-0.87
2022-12-12T23:28:36.577Z,-0.61
2022-12-12T23:33:39.848Z,-0.52
2022-12-12T23:38:42.757Z,-0.47
2022-12-12T23:43:45.294Z,-0.65
2022-12-12T23:48:47.843Z,0.04
2022-12-12T23:53:50.252Z,0.07
2022-12-12T23:59:20.116Z,0.66
